SCF weather

Scottsdale Airport
Scottsdale, Arizona, United States

Public forecast

Using degrees Fahrenheit for public forecast. Weather courtesy of forecast.io.

Current aviation weather report (METAR) for Scottsdale Airport

Retrieved 2020/08/08 22:53 UTC (19 minutes ago):

KSDL 082253Z 23008KT 10SM CLR 42/07 A2984 RMK AO2 SLP074 T04220067

Aviation forecast (TAF) for Scottsdale Airport

Retrieved 2020/08/08 18:21 UTC (5 hours ago):

TAF KSDL 081720Z 0818/0918 VRB03KT P6SM FEW100 FM082000 24006KT P6SM FEW100 FM090300 VRB03KT P6SM SKC